Time;durP1;ratioP1;P1;durP2;ratioP2;P2;SDS_P1;SDS_P2;PMS_P1;PMS_P2;Temp;Humidity;BMP_temperature;BMP_pressure;BME280_temperature;BME280_humidity;BME280_pressure;Samples;Min_cycle;Max_cycle;Signal;HPM_P1;HPM_P2
2023/03/24 00:00:27;;;;;;;17.30;13.50;;;;;;;12.55;49.72;100111.77;108085;1255;74263;-71
2023/03/24 00:02:55;;;;;;;20.30;14.80;;;;;;;12.57;49.53;100104.36;108064;1254;72818;-70
2023/03/24 00:05:23;;;;;;;21.20;14.70;;;;;;;12.58;49.44;100097.34;108191;1254;72802;-71
2023/03/24 00:07:51;;;;;;;18.60;14.00;;;;;;;12.62;49.34;100095.59;108055;1254;61593;-69
2023/03/24 00:10:22;;;;;;;20.10;14.70;;;;;;;12.63;49.24;100088.66;108113;1254;61321;-69
2023/03/24 00:12:49;;;;;;;17.90;13.60;;;;;;;12.68;49.05;100094.84;108031;1254;72790;-71
2023/03/24 00:15:20;;;;;;;19.10;13.70;;;;;;;12.73;48.83;100089.59;108469;1254;72741;-70
2023/03/24 00:17:51;;;;;;;18.80;14.50;;;;;;;12.77;48.73;100091.64;108028;1253;73685;-70
2023/03/24 00:20:19;;;;;;;17.10;13.60;;;;;;;12.81;48.66;100088.01;108102;1254;60446;-69
2023/03/24 00:22:49;;;;;;;19.60;14.30;;;;;;;12.84;48.43;100083.91;107976;1254;61101;-70
2023/03/24 00:25:26;;;;;;;17.10;13.40;;;;;;;12.89;48.34;100074.11;108116;1254;75986;-70
2023/03/24 00:27:55;;;;;;;16.70;13.30;;;;;;;12.93;48.28;100068.86;107942;1254;73825;-71
2023/03/24 00:30:23;;;;;;;16.30;12.20;;;;;;;12.96;48.19;100063.69;107892;1254;72753;-70
2023/03/24 00:32:51;;;;;;;17.30;13.60;;;;;;;12.97;48.07;100065.83;108033;1256;61286;-72
2023/03/24 00:35:18;;;;;;;16.20;12.80;;;;;;;12.99;48.04;100067.75;107833;1255;61446;-71
2023/03/24 00:37:48;;;;;;;19.60;14.80;;;;;;;13.01;47.84;100068.77;108058;1259;74398;-70
2023/03/24 00:40:16;;;;;;;18.90;14.40;;;;;;;13.05;47.83;100074.20;108121;1257;72697;-72
2023/03/24 00:42:48;;;;;;;16.50;13.60;;;;;;;13.09;47.80;100075.08;108037;1254;73274;-69
2023/03/24 00:45:18;;;;;;;16.00;13.00;;;;;;;13.11;47.80;100069.70;108061;1257;61167;-69
2023/03/24 00:47:48;;;;;;;18.50;13.00;;;;;;;13.12;47.72;100073.21;107924;1254;61109;-70
2023/03/24 00:50:17;;;;;;;16.80;13.00;;;;;;;13.12;47.70;100069.92;108101;1254;73505;-70
2023/03/24 00:52:46;;;;;;;18.30;14.80;;;;;;;13.13;47.72;100065.81;108055;1254;73279;-70
2023/03/24 00:55:17;;;;;;;18.20;14.50;;;;;;;13.14;47.70;100061.56;108108;1254;73730;-69
2023/03/24 00:57:48;;;;;;;18.20;14.90;;;;;;;13.14;47.73;100060.70;107968;1255;61356;-69
2023/03/24 01:00:23;;;;;;;17.80;13.10;;;;;;;13.15;47.75;100062.02;108157;1258;61246;-69
2023/03/24 01:02:55;;;;;;;16.70;14.00;;;;;;;13.16;47.81;100056.59;108183;1254;74290;-69
2023/03/24 01:05:31;;;;;;;17.20;13.90;;;;;;;13.15;47.74;100057.41;108053;1254;73036;-69
2023/03/24 01:08:02;;;;;;;19.80;14.60;;;;;;;13.14;47.81;100048.09;108000;1254;72030;-69
2023/03/24 01:10:33;;;;;;;20.20;14.80;;;;;;;13.13;47.84;100049.23;107919;1254;61205;-69
2023/03/24 01:13:02;;;;;;;18.20;14.30;;;;;;;13.12;47.82;100047.90;107957;1254;61198;-69
2023/03/24 01:15:33;;;;;;;19.30;14.70;;;;;;;13.09;47.85;100045.80;107937;1256;76058;-69
2023/03/24 01:18:01;;;;;;;17.90;14.70;;;;;;;13.07;47.97;100048.66;108566;1254;73871;-70
2023/03/24 01:20:36;;;;;;;18.10;14.80;;;;;;;13.04;48.06;100047.84;108058;1254;71508;-70
2023/03/24 01:23:37;;;;;;;19.10;14.70;;;;;;;13.00;48.10;100043.13;108017;1259;61247;-70
2023/03/24 01:26:23;;;;;;;19.40;15.50;;;;;;;12.97;48.28;100037.52;108154;1254;61205;-70
2023/03/24 01:28:59;;;;;;;21.20;15.60;;;;;;;12.94;48.45;100037.55;108227;1254;74360;-70
2023/03/24 01:32:01;;;;;;;18.90;15.00;;;;;;;12.92;48.42;100040.73;107995;1254;74331;-70
2023/03/24 01:35:00;;;;;;;19.50;15.20;;;;;;;12.91;48.50;100043.31;109055;1254;73183;-68
2023/03/24 01:37:44;;;;;;;;;;;;;;;12.91;48.48;100039.17;108455;1254;61230;-69
2023/03/24 01:40:18;;;;;;;19.20;15.00;;;;;;;12.90;48.64;100041.39;107880;1254;61060;-69
2023/03/24 01:43:00;;;;;;;22.80;15.80;;;;;;;12.89;48.68;100036.47;109081;1254;74485;-69
2023/03/24 01:46:21;;;;;;;19.70;15.60;;;;;;;12.88;48.70;100039.47;108095;1254;73979;-70
2023/03/24 01:49:15;;;;;;;21.60;16.10;;;;;;;12.88;48.69;100034.61;108127;1254;70978;-69
2023/03/24 01:52:01;;;;;;;21.50;16.40;;;;;;;12.88;48.72;100031.86;107844;1254;61208;-69
2023/03/24 01:54:53;;;;;;;22.30;16.60;;;;;;;12.88;48.72;100029.88;107921;1254;61575;-69
2023/03/24 01:57:45;;;;;;;23.10;17.30;;;;;;;12.88;48.81;100030.31;107973;1254;75569;-69
2023/03/24 02:11:52;;;;;;;22.00;16.50;;;;;;;12.94;48.71;100022.59;108078;1254;61239;-69
2023/03/24 02:14:30;;;;;;;22.10;16.90;;;;;;;12.91;48.72;100026.86;107881;1257;76432;-70
2023/03/24 02:17:15;;;;;;;22.40;17.60;;;;;;;12.91;48.76;100034.10;107849;1257;73791;-70
2023/03/24 02:20:11;;;;;;;23.50;17.30;;;;;;;12.90;48.80;100036.04;107835;1256;73805;-70
2023/03/24 02:23:08;;;;;;;23.50;17.40;;;;;;;12.91;48.77;100037.05;107778;1256;61346;-70
2023/03/24 02:25:50;;;;;;;20.00;15.80;;;;;;;12.91;48.77;100044.28;107766;1256;61151;-70
2023/03/24 02:28:36;;;;;;;20.60;16.00;;;;;;;12.90;48.86;100054.79;107933;1256;74904;-70
2023/03/24 02:31:22;;;;;;;22.00;16.30;;;;;;;12.87;48.94;100056.85;107940;1259;71772;-70
2023/03/24 02:34:21;;;;;;;22.40;17.70;;;;;;;12.84;49.01;100062.36;107968;1257;73278;-70
2023/03/24 02:37:20;;;;;;;21.50;16.40;;;;;;;12.82;49.10;100053.14;108067;1256;61252;-71
2023/03/24 02:40:07;;;;;;;21.00;16.30;;;;;;;12.80;49.23;100053.55;108085;1257;58827;-70
2023/03/24 02:42:43;;;;;;;21.60;17.10;;;;;;;12.77;49.33;100059.70;107870;1257;74915;-71
2023/03/24 02:45:41;;;;;;;20.30;16.20;;;;;;;12.76;49.40;100056.65;107957;1257;73549;-70
2023/03/24 02:48:16;;;;;;;22.10;17.60;;;;;;;12.74;49.44;100058.77;108086;1255;73681;-70
2023/03/24 02:51:26;;;;;;;21.00;16.70;;;;;;;12.73;49.44;100060.44;107895;1256;61101;-70
2023/03/24 02:54:06;;;;;;;23.00;16.90;;;;;;;12.72;49.60;100060.06;107710;1257;61180;-70
2023/03/24 02:56:46;;;;;;;19.70;15.60;;;;;;;12.70;49.60;100062.19;108006;1254;75309;-71
2023/03/24 02:59:36;;;;;;;21.40;16.90;;;;;;;12.68;49.62;100063.65;107933;1256;72892;-70
2023/03/24 03:02:05;;;;;;;19.90;15.60;;;;;;;12.70;49.55;100066.26;104058;1254;5472086;-69
2023/03/24 03:04:45;;;;;;;21.70;15.30;;;;;;;12.68;49.61;100072.75;107903;1254;61189;-69
2023/03/24 03:07:15;;;;;;;19.60;15.00;;;;;;;12.68;49.60;100066.80;108063;1254;61363;-69
2023/03/24 03:09:48;;;;;;;20.60;15.90;;;;;;;12.69;49.69;100070.34;107895;1257;75660;-69
2023/03/24 03:12:15;;;;;;;22.10;15.50;;;;;;;12.68;49.58;100076.02;107965;1257;73590;-68
2023/03/24 03:14:51;;;;;;;22.50;16.00;;;;;;;12.69;49.63;100072.31;107720;1262;72420;-69
2023/03/24 03:17:24;;;;;;;18.70;15.30;;;;;;;12.68;49.73;100069.98;108003;1257;61153;-71
2023/03/24 03:20:06;;;;;;;23.70;15.80;;;;;;;12.67;49.74;100072.98;107882;1254;61811;-69
2023/03/24 03:23:13;;;;;;;21.40;15.50;;;;;;;12.67;49.73;100075.35;107959;1257;75550;-70
2023/03/24 03:25:45;;;;;;;21.20;15.80;;;;;;;12.66;49.71;100071.17;108595;1257;74439;-70
2023/03/24 03:28:16;;;;;;;20.50;15.40;;;;;;;12.66;49.76;100072.71;107830;1257;72560;-70
2023/03/24 03:30:45;;;;;;;18.00;14.80;;;;;;;12.66;49.80;100070.40;107998;1255;61323;-69
2023/03/24 03:33:25;;;;;;;18.50;14.30;;;;;;;12.66;49.75;100070.73;108034;1255;61207;-69
2023/03/24 03:36:08;;;;;;;20.80;15.20;;;;;;;12.63;49.91;100070.22;107960;1256;74415;-70
2023/03/24 03:38:46;;;;;;;18.10;15.00;;;;;;;12.62;49.93;100067.67;107831;1257;73737;-70
2023/03/24 03:41:15;;;;;;;19.50;15.00;;;;;;;12.62;49.94;100067.89;107735;1262;73885;-69
2023/03/24 03:43:43;;;;;;;21.60;15.50;;;;;;;12.61;50.04;100069.77;107979;1256;61679;-69
2023/03/24 03:46:11;;;;;;;19.70;15.60;;;;;;;12.60;50.05;100074.86;107962;1259;61384;-70
2023/03/24 03:48:38;;;;;;;22.40;15.70;;;;;;;12.59;50.13;100076.70;107715;1259;75627;-70
2023/03/24 03:51:12;;;;;;;20.20;16.00;;;;;;;12.58;50.13;100076.92;108058;1257;72072;-71
2023/03/24 03:54:00;;;;;;;19.60;14.90;;;;;;;12.58;50.23;100080.73;108033;1259;72730;-71
2023/03/24 03:56:30;;;;;;;20.40;15.70;;;;;;;12.57;50.22;100076.12;107896;1256;61240;-71
2023/03/24 03:59:24;;;;;;;19.00;14.50;;;;;;;12.56;50.24;100082.93;108113;1257;60380;-69
2023/03/24 04:01:52;;;;;;;18.40;14.40;;;;;;;12.54;50.32;100089.29;107967;1255;75946;-70
2023/03/24 04:04:28;;;;;;;18.60;15.10;;;;;;;12.52;50.54;100086.41;107765;1257;71963;-69
2023/03/24 04:07:39;;;;;;;20.90;15.30;;;;;;;12.50;50.48;100084.59;107827;1257;72136;-70
2023/03/24 04:10:33;;;;;;;20.90;15.40;;;;;;;12.48;50.56;100087.25;108077;1255;61109;-70
2023/03/24 04:13:21;;;;;;;20.40;16.00;;;;;;;12.47;50.61;100087.83;108076;1257;61588;-70
2023/03/24 04:16:16;;;;;;;20.00;14.60;;;;;;;12.46;50.69;100090.90;108040;1257;74588;-70
2023/03/24 04:19:40;;;;;;;20.80;15.40;;;;;;;12.44;50.78;100093.48;107879;1256;71831;-70
2023/03/24 04:22:11;;;;;;;19.00;14.80;;;;;;;12.44;50.76;100097.08;108000;1257;73042;-70
2023/03/24 04:25:27;;;;;;;18.70;16.10;;;;;;;12.43;50.82;100102.00;108017;1256;61070;-69
2023/03/24 04:28:25;;;;;;;17.10;13.90;;;;;;;12.42;50.92;100106.24;107959;1256;61107;-71
2023/03/24 04:31:06;;;;;;;18.20;13.60;;;;;;;12.42;50.99;100106.84;107980;1257;73812;-71
2023/03/24 04:33:51;;;;;;;18.80;13.80;;;;;;;12.42;50.95;100108.92;108003;1257;72089;-71
2023/03/24 04:36:27;;;;;;;17.80;14.30;;;;;;;12.42;51.06;100109.93;108100;1259;72679;-70
2023/03/24 04:39:27;;;;;;;22.40;15.70;;;;;;;12.44;51.04;100106.35;107722;1257;61639;-70
2023/03/24 04:41:56;;;;;;;19.70;14.50;;;;;;;12.45;51.10;100108.90;107949;1257;61192;-71
2023/03/24 04:44:26;;;;;;;17.50;14.30;;;;;;;12.48;51.05;100112.33;108086;1257;74650;-71
2023/03/24 04:47:12;;;;;;;17.40;13.60;;;;;;;12.51;51.00;100113.73;107853;1257;74107;-71
2023/03/24 04:49:43;;;;;;;19.20;14.90;;;;;;;12.53;50.98;100121.27;107725;1256;72925;-71
2023/03/24 04:52:17;;;;;;;19.90;14.90;;;;;;;12.56;50.91;100122.80;107793;1262;61255;-72
2023/03/24 04:54:44;;;;;;;19.40;15.60;;;;;;;12.57;50.95;100122.36;107837;1256;61575;-71
2023/03/24 04:57:12;;;;;;;21.40;15.60;;;;;;;12.59;50.94;100126.80;107640;1257;75756;-70
2023/03/24 04:59:49;;;;;;;17.90;14.00;;;;;;;12.60;50.90;100128.40;108094;1256;72729;-70
2023/03/24 05:02:17;;;;;;;20.70;15.40;;;;;;;12.63;51.03;100128.42;108003;1254;73764;-71
2023/03/24 05:05:07;;;;;;;20.10;14.10;;;;;;;12.66;50.89;100130.39;108017;1255;60430;-71
2023/03/24 05:07:45;;;;;;;21.30;14.50;;;;;;;12.67;50.87;100139.33;107981;1257;61336;-72
2023/03/24 05:10:14;;;;;;;19.10;15.00;;;;;;;12.68;50.98;100139.80;107521;1256;73730;-72
2023/03/24 05:12:49;;;;;;;19.20;14.70;;;;;;;12.68;50.93;100140.44;107742;1256;72631;-71
2023/03/24 05:15:35;;;;;;;18.30;15.00;;;;;;;12.71;50.97;100142.73;107843;1254;72600;-72
2023/03/24 05:18:19;;;;;;;18.50;13.80;;;;;;;12.72;51.00;100150.11;107915;1257;61377;-71
2023/03/24 05:20:48;;;;;;;17.20;14.50;;;;;;;12.74;50.94;100154.59;107894;1257;61362;-71
2023/03/24 05:23:18;;;;;;;18.60;13.70;;;;;;;12.78;50.92;100154.71;107978;1256;76159;-72
2023/03/24 05:25:52;;;;;;;16.80;14.00;;;;;;;12.82;51.07;100151.20;107745;1257;71834;-72
2023/03/24 05:28:21;;;;;;;18.90;15.00;;;;;;;12.86;51.37;100150.67;107864;1257;73338;-72
2023/03/24 05:30:48;;;;;;;18.10;13.70;;;;;;;12.91;51.42;100148.38;108007;1256;61476;-70
2023/03/24 05:33:29;;;;;;;18.40;14.20;;;;;;;12.99;51.68;100144.23;107847;1257;61342;-71
2023/03/24 05:35:57;;;;;;;15.60;13.40;;;;;;;13.06;51.60;100141.61;108025;1257;74090;-71
2023/03/24 05:38:28;;;;;;;17.80;13.20;;;;;;;13.11;51.69;100139.63;107904;1257;72949;-70
2023/03/24 05:41:00;;;;;;;16.80;12.80;;;;;;;13.16;51.61;100139.89;107911;1256;72151;-72
2023/03/24 05:43:32;;;;;;;17.70;13.50;;;;;;;13.20;51.46;100141.99;107971;1257;60539;-72
2023/03/24 05:46:12;;;;;;;16.60;13.30;;;;;;;13.25;51.34;100138.91;107929;1257;61157;-72
2023/03/24 05:48:41;;;;;;;17.30;13.00;;;;;;;13.34;51.30;100141.12;108105;1257;74864;-74
2023/03/24 05:51:15;;;;;;;19.50;13.00;;;;;;;13.43;51.17;100142.24;108097;1257;73563;-72
2023/03/24 05:53:42;;;;;;;18.10;14.30;;;;;;;13.52;51.07;100146.17;107999;1256;72864;-72
2023/03/24 05:56:23;;;;;;;18.30;13.70;;;;;;;13.62;50.97;100147.07;107930;1257;61262;-72
2023/03/24 05:58:59;;;;;;;17.60;13.50;;;;;;;13.72;50.71;100155.65;107980;1254;61196;-72
2023/03/24 06:01:47;;;;;;;15.50;12.50;;;;;;;13.80;50.55;100151.90;107813;1257;76659;-72
2023/03/24 06:04:29;;;;;;;17.30;12.90;;;;;;;13.90;50.49;100149.31;107902;1255;73828;-70
2023/03/24 06:07:07;;;;;;;15.80;13.10;;;;;;;14.00;50.51;100153.63;107770;1257;71961;-69
2023/03/24 06:09:36;;;;;;;17.60;13.90;;;;;;;14.07;50.01;100153.96;108053;1259;61243;-72
2023/03/24 06:12:07;;;;;;;19.70;13.70;;;;;;;14.15;49.96;100154.19;108003;1254;61752;-71
2023/03/24 06:14:35;;;;;;;16.80;13.50;;;;;;;14.23;49.77;100151.80;107852;1254;74419;-72
2023/03/24 06:17:07;;;;;;;20.80;13.00;;;;;;;14.33;49.63;100157.36;107840;1257;73532;-72
2023/03/24 06:19:51;;;;;;;17.80;13.10;;;;;;;14.44;49.37;100154.61;108006;1256;73531;-72
2023/03/24 06:22:44;;;;;;;;;;;;;;;14.53;49.24;100155.25;107847;1258;61145;-70
2023/03/24 06:25:15;;;;;;;17.80;13.60;;;;;;;14.59;48.76;100161.23;108047;1256;61250;-72
2023/03/24 06:27:52;;;;;;;17.50;13.60;;;;;;;14.62;48.50;100162.10;107795;1255;75885;-72
2023/03/24 06:30:25;;;;;;;17.30;12.80;;;;;;;14.64;48.27;100168.08;107746;1262;73062;-71
2023/03/24 06:32:52;;;;;;;16.10;13.00;;;;;;;14.70;48.14;100170.14;107642;1257;72369;-71
2023/03/24 06:35:20;;;;;;;17.10;13.80;;;;;;;14.77;48.13;100168.94;107966;1257;61099;-71
2023/03/24 06:38:07;;;;;;;16.10;13.10;;;;;;;14.89;48.13;100163.45;107962;1257;61263;-69
2023/03/24 06:40:35;;;;;;;15.30;11.30;;;;;;;14.99;47.87;100161.05;108067;1257;75604;-72
2023/03/24 06:43:03;;;;;;;15.10;12.60;;;;;;;15.08;47.68;100151.91;108010;1257;73500;-69
2023/03/24 06:45:39;;;;;;;15.10;12.10;;;;;;;15.18;47.65;100149.84;107731;1257;71914;-71
2023/03/24 06:48:09;;;;;;;16.30;13.20;;;;;;;15.27;47.50;100154.04;107736;1260;61459;-71
2023/03/24 06:50:37;;;;;;;17.00;13.70;;;;;;;15.34;47.45;100157.98;107806;1257;61573;-71
2023/03/24 06:53:10;;;;;;;16.90;12.30;;;;;;;15.40;47.24;100151.03;107795;1258;75086;-71
2023/03/24 06:55:39;;;;;;;14.60;11.70;;;;;;;15.48;47.29;100149.92;107884;1257;72168;-71
2023/03/24 06:58:07;;;;;;;15.90;12.70;;;;;;;15.54;47.20;100149.04;108059;1254;71736;-71
2023/03/24 07:00:45;;;;;;;15.40;11.70;;;;;;;15.60;47.17;100152.36;107817;1255;61166;-72
2023/03/24 07:03:42;;;;;;;16.70;12.10;;;;;;;15.64;47.23;100151.75;108132;1257;61112;-71
2023/03/24 07:06:12;;;;;;;15.00;11.70;;;;;;;15.69;47.19;100151.73;108025;1257;75602;-71
2023/03/24 07:08:39;;;;;;;14.00;11.00;;;;;;;15.71;47.19;100150.86;107883;1257;72488;-71
2023/03/24 07:11:08;;;;;;;12.60;10.40;;;;;;;15.72;47.17;100151.89;107889;1257;73883;-71
2023/03/24 07:13:39;;;;;;;16.10;12.00;;;;;;;15.66;47.02;100154.48;107969;1257;61427;-71
2023/03/24 07:16:07;;;;;;;14.60;11.70;;;;;;;15.57;47.27;100153.41;107868;1257;61228;-72
2023/03/24 07:18:34;;;;;;;14.50;11.80;;;;;;;15.53;47.33;100153.80;107904;1254;73408;-71
2023/03/24 07:21:06;;;;;;;17.10;11.90;;;;;;;15.52;47.49;100149.52;107841;1257;73261;-72
2023/03/24 07:23:35;;;;;;;18.20;12.50;;;;;;;15.51;47.41;100150.40;107801;1260;72920;-70
2023/03/24 07:26:21;;;;;;;16.80;12.00;;;;;;;15.48;47.58;100151.16;107644;1262;61481;-71
2023/03/24 07:28:48;;;;;;;15.20;12.20;;;;;;;15.46;47.67;100149.91;107899;1257;61749;-71
2023/03/24 07:31:57;;;;;;;16.00;11.70;;;;;;;15.44;47.69;100150.23;107385;1264;73822;-72
2023/03/24 07:34:25;;;;;;;15.40;12.00;;;;;;;15.43;47.78;100153.23;107347;1263;73792;-70
2023/03/24 07:36:53;;;;;;;15.80;12.00;;;;;;;15.42;47.85;100160.14;107662;1257;72780;-71
2023/03/24 07:39:21;;;;;;;16.70;12.00;;;;;;;15.45;47.91;100157.36;109003;1257;60180;-70
2023/03/24 07:41:50;;;;;;;14.90;11.50;;;;;;;15.47;48.00;100158.99;108211;1257;61976;-70
2023/03/24 07:44:36;;;;;;;14.80;12.40;;;;;;;15.48;48.17;100164.55;107877;1258;74160;-71
2023/03/24 07:47:10;;;;;;;14.40;11.90;;;;;;;15.51;48.08;100163.09;107777;1258;73691;-71
2023/03/24 07:49:38;;;;;;;14.50;11.30;;;;;;;15.54;48.10;100160.19;107699;1258;74021;-71
2023/03/24 07:52:08;;;;;;;16.80;12.40;;;;;;;15.58;48.02;100163.14;107744;1261;61152;-71
2023/03/24 07:54:39;;;;;;;15.70;11.90;;;;;;;15.57;47.93;100160.41;108037;1259;61569;-71
2023/03/24 07:57:06;;;;;;;14.70;11.80;;;;;;;15.56;48.12;100163.38;107822;1260;74684;-71
2023/03/24 07:59:38;;;;;;;17.30;11.50;;;;;;;15.58;48.14;100159.02;107876;1257;72833;-72
2023/03/24 08:02:18;;;;;;;18.80;11.60;;;;;;;15.63;48.35;100156.52;107929;1258;73997;-72
2023/03/24 08:04:59;;;;;;;15.10;11.80;;;;;;;15.68;48.38;100160.48;107890;1257;61121;-72
2023/03/24 08:08:05;;;;;;;20.80;13.80;;;;;;;15.71;48.39;100160.43;107464;1264;61532;-70
2023/03/24 08:10:32;;;;;;;15.90;12.20;;;;;;;15.72;48.32;100158.95;107983;1260;72911;-72
2023/03/24 08:13:01;;;;;;;14.30;11.00;;;;;;;15.76;48.38;100159.85;108087;1257;72320;-71
2023/03/24 08:15:28;;;;;;;18.70;12.90;;;;;;;15.81;48.40;100150.78;107991;1257;70864;-72
2023/03/24 08:17:55;;;;;;;15.60;12.20;;;;;;;15.85;48.22;100150.44;108020;1257;60493;-72
2023/03/24 08:20:28;;;;;;;17.10;13.00;;;;;;;15.91;48.18;100156.06;107875;1255;61148;-71
2023/03/24 08:22:55;;;;;;;13.70;11.80;;;;;;;15.96;48.13;100154.73;108081;1257;74246;-71
2023/03/24 08:25:24;;;;;;;15.80;13.50;;;;;;;16.02;47.88;100153.67;108068;1258;72928;-71
2023/03/24 08:27:52;;;;;;;17.30;12.60;;;;;;;16.06;47.89;100152.73;107963;1260;73812;-72
2023/03/24 08:30:21;;;;;;;21.60;16.60;;;;;;;16.12;47.74;100148.73;107820;1257;61131;-72
2023/03/24 08:32:54;;;;;;;18.70;13.90;;;;;;;16.16;47.79;100146.63;108005;1255;61267;-71
2023/03/24 08:35:24;;;;;;;18.10;13.50;;;;;;;16.23;47.77;100146.59;108023;1259;72878;-73
2023/03/24 08:37:51;;;;;;;14.20;11.80;;;;;;;16.28;47.72;100144.20;107995;1257;73986;-72
2023/03/24 08:40:22;;;;;;;14.10;11.80;;;;;;;16.33;47.59;100147.54;107923;1257;73908;-72
2023/03/24 08:42:55;;;;;;;16.80;13.60;;;;;;;16.37;47.41;100142.75;107532;1258;61229;-71
2023/03/24 08:45:26;;;;;;;16.90;13.00;;;;;;;16.45;47.26;100142.66;107838;1258;61093;-72
2023/03/24 08:47:54;;;;;;;14.90;12.60;;;;;;;16.54;47.04;100137.55;107773;1255;75894;-70
2023/03/24 08:50:23;;;;;;;13.70;11.80;;;;;;;16.59;46.85;100135.86;108052;1257;73081;-71
2023/03/24 08:52:50;;;;;;;15.60;12.20;;;;;;;16.64;46.67;100141.20;108001;1257;72862;-72
2023/03/24 08:55:17;;;;;;;15.80;12.70;;;;;;;16.70;46.73;100136.25;107940;1255;61196;-70
2023/03/24 08:57:52;;;;;;;16.30;11.90;;;;;;;16.79;46.50;100135.02;108113;1257;61123;-70
2023/03/24 09:00:20;;;;;;;18.00;12.50;;;;;;;16.89;46.34;100134.98;107985;1257;75078;-71
2023/03/24 09:02:50;;;;;;;15.30;12.80;;;;;;;16.99;46.31;100134.89;108009;1257;74328;-70
2023/03/24 09:05:20;;;;;;;;;;;;;;;17.12;46.13;100134.19;108057;1254;74756;-70
2023/03/24 09:08:03;;;;;;;17.30;12.80;;;;;;;17.26;45.58;100132.88;107965;1254;60641;-70
2023/03/24 09:10:30;;;;;;;15.90;12.60;;;;;;;17.33;45.25;100135.00;108031;1260;61194;-69
2023/03/24 09:12:58;;;;;;;15.00;12.30;;;;;;;17.40;45.16;100139.41;108105;1256;75322;-71
2023/03/24 09:15:25;;;;;;;14.10;11.60;;;;;;;17.48;44.88;100134.16;108070;1257;73722;-70
2023/03/24 09:17:51;;;;;;;16.60;13.70;;;;;;;17.55;44.54;100132.34;107989;1257;73593;-70
2023/03/24 09:20:19;;;;;;;15.70;12.40;;;;;;;17.60;44.29;100129.82;107973;1254;61144;-70
2023/03/24 09:22:46;;;;;;;15.30;12.40;;;;;;;17.59;44.12;100133.94;107960;1254;61140;-70
2023/03/24 09:25:17;;;;;;;14.70;12.00;;;;;;;17.64;44.23;100127.89;108020;1254;74843;-71
2023/03/24 09:27:45;;;;;;;16.20;12.70;;;;;;;17.74;44.13;100120.45;108061;1258;72917;-70
2023/03/24 09:30:13;;;;;;;14.90;12.40;;;;;;;17.89;43.89;100120.67;107911;1254;70818;-70
2023/03/24 09:32:41;;;;;;;15.20;12.70;;;;;;;18.03;43.64;100120.40;108122;1254;61132;-70
2023/03/24 09:35:08;;;;;;;16.20;12.90;;;;;;;18.13;43.53;100124.60;108019;1256;61333;-70
2023/03/24 09:37:37;;;;;;;15.00;12.40;;;;;;;18.21;43.31;100124.40;107826;1257;73934;-70
2023/03/24 09:40:05;;;;;;;15.80;13.00;;;;;;;18.22;42.99;100124.86;107708;1263;72668;-71
2023/03/24 09:42:36;;;;;;;15.70;12.30;;;;;;;18.23;43.10;100121.61;107973;1257;71945;-71
2023/03/24 09:45:12;;;;;;;17.60;12.90;;;;;;;18.30;43.22;100119.90;108023;1258;61301;-71
2023/03/24 09:47:41;;;;;;;16.50;12.40;;;;;;;18.42;43.14;100117.78;108046;1254;61160;-68
2023/03/24 09:50:39;;;;;;;15.00;12.70;;;;;;;18.58;43.15;100116.52;108040;1257;76097;-70
2023/03/24 09:53:37;;;;;;;16.50;13.30;;;;;;;18.77;42.49;100112.44;107850;1257;73802;-70
2023/03/24 09:56:11;;;;;;;15.10;11.50;;;;;;;18.82;42.04;100112.93;107761;1260;70577;-72
2023/03/24 09:58:40;;;;;;;15.60;11.90;;;;;;;18.81;42.15;100107.39;107664;1255;61336;-72
2023/03/24 10:01:15;;;;;;;14.70;11.50;;;;;;;18.78;42.26;100108.23;108118;1254;61231;-71
2023/03/24 10:03:43;;;;;;;14.00;11.20;;;;;;;18.79;42.06;100107.73;109197;1257;74943;-72
2023/03/24 10:06:24;;;;;;;14.50;11.10;;;;;;;18.81;42.37;100107.02;108219;1257;70796;-72
2023/03/24 10:09:23;;;;;;;16.20;12.50;;;;;;;18.92;42.35;100104.85;107758;1260;73838;-71
2023/03/24 10:12:04;;;;;;;12.40;10.80;;;;;;;19.05;41.64;100104.06;108092;1254;61478;-70
2023/03/24 10:15:11;;;;;;;12.60;10.30;;;;;;;19.07;41.64;100104.85;108100;1256;61496;-70
2023/03/24 10:17:53;;;;;;;13.40;10.60;;;;;;;19.17;41.46;100097.67;107932;1254;75666;-72
2023/03/24 10:20:32;;;;;;;12.40;10.00;;;;;;;19.30;41.63;100097.97;107914;1254;73452;-71
2023/03/24 10:23:19;;;;;;;11.30;9.60;;;;;;;19.50;41.37;100099.29;107790;1256;73185;-71
2023/03/24 10:26:25;;;;;;;12.10;9.90;;;;;;;19.71;41.11;100092.97;108051;1254;61143;-70
2023/03/24 10:29:24;;;;;;;12.60;9.10;;;;;;;19.85;40.61;100083.91;107805;1254;61179;-71
2023/03/24 10:32:15;;;;;;;11.10;8.10;;;;;;;20.04;40.44;100084.05;108012;1257;72908;-70
2023/03/24 10:35:08;;;;;;;10.10;7.50;;;;;;;20.31;40.24;100077.58;107998;1257;73832;-71
2023/03/24 10:37:36;;;;;;;8.80;7.10;;;;;;;20.51;39.82;100072.88;107752;1256;71044;-71
2023/03/24 10:40:15;;;;;;;12.60;7.60;;;;;;;20.59;39.52;100070.46;108049;1256;59750;-70
2023/03/24 10:42:42;;;;;;;8.90;6.90;;;;;;;20.67;39.19;100063.17;108152;1257;61016;-71
2023/03/24 10:45:14;;;;;;;10.60;7.20;;;;;;;20.73;38.60;100055.02;107918;1258;75691;-71
2023/03/24 10:47:41;;;;;;;10.10;7.20;;;;;;;20.72;38.35;100054.67;107992;1254;73638;-71
2023/03/24 10:50:12;;;;;;;9.70;6.80;;;;;;;20.74;38.99;100050.57;108055;1257;73724;-71
2023/03/24 10:52:46;;;;;;;10.20;7.00;;;;;;;20.86;38.58;100045.77;108134;1256;61221;-73
2023/03/24 10:55:17;;;;;;;9.50;7.00;;;;;;;20.97;38.07;100042.44;107891;1256;61882;-72
2023/03/24 10:57:57;;;;;;;8.80;7.40;;;;;;;21.03;37.62;100037.29;108037;1257;73684;-72
2023/03/24 11:00:33;;;;;;;9.30;7.20;;;;;;;21.00;37.46;100035.65;108079;1257;73007;-73
2023/03/24 11:03:05;;;;;;;9.80;7.50;;;;;;;20.94;37.29;100037.88;107758;1257;73808;-72
2023/03/24 11:05:36;;;;;;;9.20;6.80;;;;;;;20.90;37.56;100036.81;108011;1256;61843;-70
2023/03/24 11:08:27;;;;;;;8.60;7.00;;;;;;;20.91;37.57;100033.20;108124;1256;61100;-72
2023/03/24 11:10:56;;;;;;;9.90;7.30;;;;;;;21.00;37.44;100024.92;108133;1257;74051;-71
2023/03/24 11:13:27;;;;;;;9.60;7.00;;;;;;;21.14;37.03;100023.14;108151;1257;74026;-72
2023/03/24 11:16:16;;;;;;;10.80;6.00;;;;;;;21.28;36.92;100021.54;108146;1256;73315;-71
2023/03/24 11:19:05;;;;;;;9.70;6.30;;;;;;;21.36;36.42;100022.34;107944;1255;61201;-72
2023/03/24 11:21:36;;;;;;;10.10;6.10;;;;;;;21.39;35.87;100022.36;107981;1256;61454;-72
2023/03/24 11:24:09;;;;;;;9.40;5.90;;;;;;;21.38;35.83;100016.91;107824;1257;74749;-71
2023/03/24 11:26:37;;;;;;;6.80;5.60;;;;;;;21.33;35.63;100012.45;108143;1256;72311;-71
2023/03/24 11:29:19;;;;;;;10.40;7.00;;;;;;;21.25;35.78;100014.09;108100;1257;71909;-72
2023/03/24 11:32:04;;;;;;;12.10;7.00;;;;;;;21.23;36.01;100011.92;108098;1256;61099;-72
2023/03/24 11:34:33;;;;;;;8.60;6.50;;;;;;;21.23;36.25;100008.02;108060;1256;61064;-71
2023/03/24 11:37:02;;;;;;;7.90;5.90;;;;;;;21.25;36.02;100008.42;108125;1257;73584;-72
2023/03/24 11:39:31;;;;;;;7.70;6.40;;;;;;;21.30;36.00;99998.56;108159;1256;75249;-72
2023/03/24 11:42:26;;;;;;;8.30;6.10;;;;;;;21.36;36.00;99998.52;108109;1257;72636;-70
2023/03/24 11:44:54;;;;;;;10.50;5.90;;;;;;;21.38;36.17;99993.60;108026;1256;61175;-71
2023/03/24 11:47:23;;;;;;;6.90;5.60;;;;;;;21.47;36.08;99987.98;108015;1256;61174;-72
2023/03/24 11:50:10;;;;;;;7.90;5.80;;;;;;;21.56;36.16;99992.98;108063;1254;74939;-72
2023/03/24 11:52:54;;;;;;;9.80;5.90;;;;;;;21.59;35.96;99988.49;107954;1254;72197;-72
2023/03/24 11:55:21;;;;;;;8.60;6.00;;;;;;;21.62;36.16;99984.69;108093;1254;70802;-73
2023/03/24 11:57:53;;;;;;;9.20;6.50;;;;;;;21.69;36.14;99981.15;107924;1254;61149;-70